Austin Straubel International Airport
KGRB : now visible

Airfield :











YOU CAN JOIN US ON...

 
LOGIN :

Register | Disclaimer

   EN    FR    IT 

 









Legend :    VFR   Marginal VFR   IFR   Intensive IFR   Very Intensive IFR
Visi :
Ceiling :
>= 8 km
>= 3000ft
5 to 8 km
1000 to 3000 ft
1500m to 5 km
500 to 1000 ft
800 to 1500m
200 to 500 ft
< 800m
< 200 ft
Symbols :   Thunderstorms  Fog  Heavy snow  Heavy precipitations  Wind > 20 kt






- Airport Elevation : 695 ft
- IATA code : GRB


KGRB - Austin Straubel International

CURRENT METAR :
  • 151634Z 05006KT 5SM BR OVC028 02/00 A2953 RMK AO2 T00170000

EXPIRED METARs :
  • 151553Z 05006KT 8SM OVC033 02/00 A2953 RMK AO2 SLP006 T00170000
  • 151533Z 04005KT 3SM BR FEW022 OVC033 02/01 A2953 RMK AO2 T00170006
  • 151453Z 04006KT 7SM BKN026 OVC033 01/00 A2951 RMK AO2 SLP001 T00110000 53017
  • 151446Z 04007KT 7SM BKN028 OVC035 01/00 A2951 RMK AO2 T00110000
  • 151353Z 04006KT 4SM BR FEW019 OVC036 01/00 A2949 RMK AO2 SLP994 T00110000

TAF KGRB
Valid from the 15 at 14:00 until the 16 at 12:00 UTC


151404Z 1514/1612 04008KT 5SM BR SCT015 OVC035
TEMPO 1514/1517 P6SM -DZSN BKN015
FM151700 05007KT 3SM -SN BR OVC007
FM160000 01006KT 3SM -DZSN OVC005
FM160500 01009G15KT 4SM -SHSN OVC009
FM160900 36009G15KT 5SM -SHSNDZ OVC010
KZMP FIR / North America



MET'MAP, your aeronautical weather chart ! - Copyright ORBIFLY December 2007 - Disclaimer

ORBIFLY MET'MAP TEAM :

Programming & Development : Alexandra Zaïnal
Concept & original design : Baudouin d'Aumeries
Assistance for programming : Marc-Olivier Méhu
Technical & hardware support : Manuel Goepfert

Contact : metmap@orbifly.com




SOURCES & CREDITS :

   NOAA       Earth
Advisory